Bookmark and Share
Track history (hours):
 

Biotrans

Last reported at 2014-Apr-18 12:13 UTC. Time now 2014-Apr-18 16:19 UTC.
Position N 67°36' E 014°31'.

Length 55 m; draft 5.5 m.

Type: Cargo ship. MMSI: 259260000.

NotesDate/timePositionNaut miles runAvg speedWind from/ knotsBaromVisibWave heightAir tempDewpointWater temp
2014-Apr-18 12:13N 67°36' E 014°31'710.3
2014-Apr-18 11:33N 67°29' E 014°28'10 9.7
2014-Apr-18 10:33N 67°20' E 014°20'8 8.5
2014-Apr-18 09:33N 67°13' E 014°08'9 8.2
2014-Apr-18 08:26N 67°05' E 013°56'7 7.9
2014-Apr-18 07:30N 67°01' E 013°41'35 7.1
2014-Apr-18 02:33N 66°30' E 012°59'8 7.7
2014-Apr-18 01:33N 66°22' E 012°58'  
2014-Apr-14 18:34N 66°23' E 012°58'59 8.4
2014-Apr-14 11:34N 67°14' E 014°12'5 5.5
2014-Apr-14 10:33N 67°17' E 014°23'0 0.0
2014-Apr-14 09:33N 67°17' E 014°23'4 3.7
2014-Apr-14 08:33N 67°21' E 014°26'9 9.2
2014-Apr-14 07:33N 67°29' E 014°37'15 0.3
2014-Apr-12 04:34N 67°43' E 014°31'8 8.3
2014-Apr-12 03:33N 67°35' E 014°30'8 8.3
2014-Apr-12 02:34N 67°27' E 014°28'8 8.4
2014-Apr-12 01:33N 67°19' E 014°19'9 8.8
2014-Apr-12 00:33N 67°12' E 014°06'9 9.0
2014-Apr-11 23:30N 67°04' E 013°53'41 8.1
2014-Apr-11 18:30N 66°31' E 012°52'8 8.5
2014-Apr-11 17:34N 66°24' E 012°43'8 7.9
2014-Apr-11 16:34N 66°17' E 012°37'9 8.3
2014-Apr-11 15:31N 66°12' E 012°18'  

Dump ship's entire track history

sailing weather and tide predictions

Biotrans — JWPN — position and weather